createdAt,value
2018-08-31T00:02:11.535Z,3.03
2018-08-31T00:04:53.156Z,4.23
2018-08-31T00:07:34.893Z,3.60
2018-08-31T00:16:42.006Z,3.70
2018-08-31T00:19:11.910Z,3.90
2018-08-31T00:21:44.288Z,3.77
2018-08-31T00:24:27.063Z,3.67
2018-08-31T00:27:08.879Z,3.40
2018-08-31T00:29:52.347Z,3.23
2018-08-31T00:34:41.431Z,3.57
2018-08-31T00:37:21.088Z,4.10
2018-08-31T00:39:59.071Z,3.20
2018-08-31T00:43:41.638Z,4.10
2018-08-31T00:46:11.660Z,4.70
2018-08-31T00:48:42.861Z,3.50
2018-08-31T00:51:13.010Z,4.40
2018-08-31T00:53:42.901Z,2.90
2018-08-31T00:56:13.312Z,3.10
2018-08-31T00:58:43.649Z,4.90
2018-08-31T01:01:14.574Z,4.37
2018-08-31T01:03:45.361Z,3.57
2018-08-31T01:06:15.508Z,4.00
2018-08-31T01:08:45.670Z,3.80
2018-08-31T01:11:16.269Z,3.80
2018-08-31T01:13:47.136Z,3.57
2018-08-31T01:16:18.498Z,3.00
2018-08-31T01:18:49.654Z,3.43
2018-08-31T01:21:20.279Z,3.70
2018-08-31T01:23:50.341Z,3.50
2018-08-31T01:26:21.485Z,3.40
2018-08-31T01:28:53.800Z,2.73
2018-08-31T01:31:24.425Z,3.63
2018-08-31T01:33:54.528Z,3.27
2018-08-31T01:36:24.383Z,3.53
2018-08-31T01:38:55.067Z,3.37
2018-08-31T01:41:25.298Z,3.50
2018-08-31T01:43:55.371Z,3.57
2018-08-31T01:46:26.077Z,3.40
2018-08-31T01:48:55.972Z,3.80
2018-08-31T01:51:26.537Z,3.30
2018-08-31T01:53:57.924Z,3.30
2018-08-31T01:56:28.094Z,3.93
2018-08-31T01:58:58.113Z,3.50
2018-08-31T02:01:28.327Z,3.03
2018-08-31T02:04:02.523Z,3.33
2018-08-31T02:06:33.944Z,4.47
2018-08-31T02:09:09.305Z,3.50
2018-08-31T02:11:39.758Z,3.50
2018-08-31T02:14:09.822Z,3.20
2018-08-31T02:16:40.397Z,3.23
2018-08-31T02:19:10.208Z,3.90
2018-08-31T02:21:40.463Z,3.10
2018-08-31T02:24:11.141Z,3.20
2018-08-31T02:26:41.134Z,3.63
2018-08-31T02:29:11.099Z,3.47
2018-08-31T02:31:41.609Z,3.40
2018-08-31T02:34:12.363Z,3.27
2018-08-31T02:36:42.289Z,2.90
2018-08-31T02:39:13.910Z,3.07
2018-08-31T02:41:44.089Z,3.90
2018-08-31T02:44:15.813Z,3.40
2018-08-31T02:46:46.420Z,4.40
2018-08-31T02:49:17.488Z,3.50
2018-08-31T02:51:48.916Z,3.57
2018-08-31T02:54:19.385Z,3.27
2018-08-31T02:56:49.636Z,3.30
2018-08-31T02:59:19.833Z,3.23
2018-08-31T03:01:50.140Z,3.60
2018-08-31T03:04:20.309Z,3.50
2018-08-31T03:06:50.531Z,4.23
2018-08-31T03:09:21.304Z,3.43
2018-08-31T03:11:52.051Z,4.57
2018-08-31T03:14:23.043Z,3.57
2018-08-31T03:16:53.851Z,4.17
2018-08-31T03:19:24.079Z,3.60
2018-08-31T03:21:54.032Z,2.77
2018-08-31T03:24:25.991Z,3.70
2018-08-31T03:26:55.996Z,3.80
2018-08-31T03:29:26.428Z,4.00
2018-08-31T03:31:56.913Z,3.00
2018-08-31T03:34:28.221Z,3.80
2018-08-31T03:36:58.537Z,3.60
2018-08-31T03:39:29.929Z,4.27
2018-08-31T03:42:00.119Z,3.90
2018-08-31T03:44:31.064Z,3.30
2018-08-31T03:47:01.631Z,3.77
2018-08-31T03:49:33.062Z,3.10
2018-08-31T03:52:03.025Z,3.70
2018-08-31T03:54:34.017Z,4.10
2018-08-31T03:57:05.116Z,3.80
2018-08-31T03:59:36.455Z,3.73
2018-08-31T04:02:06.676Z,4.00
2018-08-31T04:04:36.396Z,3.40
2018-08-31T04:07:06.836Z,4.13
2018-08-31T04:09:36.858Z,4.60
2018-08-31T04:12:07.509Z,5.00
2018-08-31T04:14:37.645Z,4.33
2018-08-31T04:17:10.126Z,4.83
2018-08-31T04:19:41.240Z,4.40
2018-08-31T04:22:11.822Z,4.87
2018-08-31T04:24:41.453Z,4.10
2018-08-31T04:27:11.431Z,4.13
2018-08-31T04:29:42.044Z,4.10
2018-08-31T04:32:12.934Z,4.23
2018-08-31T04:34:42.672Z,4.40
2018-08-31T04:37:13.440Z,4.07
2018-08-31T04:39:43.227Z,4.73
2018-08-31T04:42:13.387Z,3.90
2018-08-31T04:44:43.899Z,4.37
2018-08-31T04:47:14.336Z,4.67
2018-08-31T04:49:44.457Z,4.10
2018-08-31T04:52:14.907Z,3.33
2018-08-31T04:54:44.587Z,4.13
2018-08-31T04:57:14.746Z,4.10
2018-08-31T04:59:45.398Z,4.23
2018-08-31T05:02:16.316Z,3.87
2018-08-31T05:04:46.176Z,5.53
2018-08-31T05:07:16.471Z,4.20
2018-08-31T05:09:46.432Z,4.60
2018-08-31T05:12:16.464Z,4.00
2018-08-31T05:14:46.906Z,4.70
2018-08-31T05:17:16.815Z,4.87
2018-08-31T05:19:47.039Z,4.47
2018-08-31T05:22:17.468Z,4.60
2018-08-31T05:24:47.429Z,4.00
2018-08-31T05:27:18.160Z,4.17
2018-08-31T05:29:47.991Z,4.10
2018-08-31T05:32:18.260Z,5.17
2018-08-31T05:34:48.368Z,3.90
2018-08-31T05:37:19.646Z,4.97
2018-08-31T05:39:50.443Z,3.87
2018-08-31T05:42:21.664Z,4.47
2018-08-31T05:44:52.259Z,4.90
2018-08-31T05:47:22.456Z,4.37
2018-08-31T05:49:52.816Z,5.20
2018-08-31T05:52:23.027Z,4.20
2018-08-31T05:54:52.929Z,5.67
2018-08-31T05:57:24.195Z,3.70
2018-08-31T05:59:54.049Z,4.60
2018-08-31T06:02:24.198Z,4.17
2018-08-31T06:04:55.588Z,4.40
2018-08-31T06:07:25.790Z,4.30
2018-08-31T06:09:56.074Z,4.57
2018-08-31T06:12:26.712Z,4.50
2018-08-31T06:17:36.059Z,3.93
2018-08-31T06:20:07.212Z,4.57
2018-08-31T06:22:37.201Z,4.70
2018-08-31T06:25:08.197Z,4.30
2018-08-31T06:27:39.192Z,4.33
2018-08-31T06:30:09.468Z,4.97
2018-08-31T06:32:39.404Z,4.10
2018-08-31T06:35:11.702Z,3.60
2018-08-31T06:37:42.781Z,3.77
2018-08-31T06:40:13.905Z,3.83
2018-08-31T06:42:44.631Z,3.80
2018-08-31T06:45:16.862Z,4.47
2018-08-31T06:47:47.864Z,4.10
2018-08-31T06:50:21.188Z,4.13
2018-08-31T06:52:51.798Z,5.93
2018-08-31T06:55:24.194Z,3.83
2018-08-31T06:57:54.666Z,4.07
2018-08-31T07:00:32.289Z,4.70
2018-08-31T07:03:03.166Z,4.50
2018-08-31T07:05:35.800Z,4.50
2018-08-31T07:08:08.087Z,3.93
2018-08-31T07:10:38.878Z,4.70
2018-08-31T07:13:12.436Z,3.93
2018-08-31T07:15:43.413Z,3.90
2018-08-31T07:18:17.114Z,4.27
2018-08-31T07:20:48.133Z,4.23
2018-08-31T07:23:18.645Z,4.30
2018-08-31T07:25:49.069Z,4.67
2018-08-31T07:28:22.624Z,4.37
2018-08-31T07:30:55.798Z,4.13
2018-08-31T07:33:31.135Z,4.50
2018-08-31T07:36:02.143Z,3.40
2018-08-31T07:38:32.706Z,4.13
2018-08-31T07:41:04.075Z,3.20
2018-08-31T07:43:34.614Z,3.40
2018-08-31T07:46:04.455Z,3.10
2018-08-31T07:48:34.918Z,4.07
2018-08-31T07:51:04.820Z,4.20
2018-08-31T07:53:35.021Z,3.37
2018-08-31T07:56:07.851Z,3.40
2018-08-31T07:58:40.148Z,3.50
2018-08-31T08:01:13.016Z,3.27
2018-08-31T08:03:44.205Z,4.23
2018-08-31T08:06:14.622Z,3.30
2018-08-31T08:08:46.826Z,3.13
2018-08-31T08:11:17.533Z,3.00
2018-08-31T08:13:48.636Z,2.83
2018-08-31T08:16:20.361Z,3.50
2018-08-31T08:18:51.407Z,3.60
2018-08-31T08:21:21.744Z,2.60
2018-08-31T08:23:52.949Z,2.90
2018-08-31T08:26:25.680Z,2.80
2018-08-31T08:28:56.707Z,3.33
2018-08-31T08:31:26.832Z,3.70
2018-08-31T08:33:57.228Z,2.30
2018-08-31T08:36:28.909Z,2.70
2018-08-31T08:38:59.332Z,2.53
2018-08-31T08:41:30.922Z,2.60
2018-08-31T08:44:01.822Z,3.03
2018-08-31T08:46:47.839Z,2.87
2018-08-31T08:49:21.860Z,1.80
2018-08-31T08:51:53.464Z,2.93
2018-08-31T08:54:24.195Z,2.63
2018-08-31T08:56:55.820Z,2.47
2018-08-31T08:59:32.699Z,2.40
2018-08-31T09:02:05.112Z,2.20
2018-08-31T09:04:37.635Z,2.57
2018-08-31T09:07:11.257Z,2.30
2018-08-31T09:09:46.216Z,2.20
2018-08-31T09:12:22.987Z,2.93
2018-08-31T09:14:53.047Z,2.50
2018-08-31T09:17:23.550Z,2.50
2018-08-31T09:19:53.542Z,2.17
2018-08-31T09:22:23.602Z,2.73
2018-08-31T09:24:54.444Z,2.40
2018-08-31T09:27:28.656Z,2.33
2018-08-31T09:30:05.171Z,2.70
2018-08-31T09:32:35.999Z,1.80
2018-08-31T09:35:06.903Z,1.87
2018-08-31T09:37:37.322Z,2.10
2018-08-31T09:40:07.579Z,2.10
2018-08-31T09:42:39.077Z,3.07
2018-08-31T09:45:09.537Z,2.30
2018-08-31T09:47:40.271Z,2.70
2018-08-31T09:50:11.882Z,2.37
2018-08-31T09:52:41.896Z,2.03
2018-08-31T09:55:12.086Z,1.97
2018-08-31T09:57:42.445Z,1.87
2018-08-31T10:00:12.810Z,2.13
2018-08-31T10:02:48.861Z,2.27
2018-08-31T10:05:20.177Z,2.50
2018-08-31T10:07:51.411Z,2.20
2018-08-31T10:10:22.795Z,2.00
2018-08-31T10:12:53.185Z,1.80
2018-08-31T10:15:23.219Z,2.10
2018-08-31T10:17:53.120Z,2.30
2018-08-31T10:20:26.402Z,2.33
2018-08-31T10:22:57.547Z,2.03
2018-08-31T10:25:30.348Z,1.93
2018-08-31T10:28:05.427Z,2.40
2018-08-31T10:30:38.682Z,2.13
2018-08-31T10:33:10.686Z,2.07
2018-08-31T10:35:40.760Z,1.93
2018-08-31T10:38:12.369Z,2.30
2018-08-31T10:40:44.696Z,2.40
2018-08-31T10:43:22.978Z,2.50
2018-08-31T10:45:55.240Z,2.57
2018-08-31T10:52:51.795Z,2.30
2018-08-31T10:55:23.071Z,2.40
2018-08-31T10:57:57.091Z,1.87
2018-08-31T11:00:27.461Z,2.10
2018-08-31T11:02:57.840Z,2.30
2018-08-31T11:05:28.450Z,1.90
2018-08-31T11:07:58.928Z,2.43
2018-08-31T11:10:29.698Z,1.90
2018-08-31T11:13:00.810Z,2.73
2018-08-31T11:15:31.861Z,1.80
2018-08-31T11:18:02.800Z,2.20
2018-08-31T11:20:33.218Z,2.10
2018-08-31T11:23:03.327Z,2.10
2018-08-31T11:25:35.307Z,2.80
2018-08-31T11:28:09.723Z,2.70
2018-08-31T11:30:40.923Z,1.90
2018-08-31T11:33:11.233Z,2.17
2018-08-31T11:35:42.467Z,2.20
2018-08-31T11:38:17.166Z,2.80
2018-08-31T11:40:47.313Z,2.30
2018-08-31T11:43:17.558Z,2.27
2018-08-31T11:45:48.010Z,2.50
2018-08-31T11:48:18.319Z,2.70
2018-08-31T11:50:48.154Z,2.17
2018-08-31T11:53:18.162Z,2.73
2018-08-31T11:55:49.708Z,2.60
2018-08-31T11:58:19.460Z,1.80
2018-08-31T12:00:51.831Z,2.03
2018-08-31T12:03:23.049Z,2.50
2018-08-31T12:05:54.485Z,2.47
2018-08-31T12:08:25.723Z,2.80
2018-08-31T12:10:55.679Z,1.80
2018-08-31T12:13:28.062Z,2.00
2018-08-31T12:15:58.964Z,2.47
2018-08-31T12:18:29.556Z,2.57
2018-08-31T12:21:00.304Z,2.00
2018-08-31T12:23:31.343Z,2.30
2018-08-31T12:26:03.085Z,3.00
2018-08-31T12:28:33.505Z,2.00
2018-08-31T12:31:03.966Z,1.63
2018-08-31T12:33:35.327Z,2.03
2018-08-31T12:36:05.886Z,2.33
2018-08-31T12:38:37.826Z,1.87
2018-08-31T12:41:08.101Z,2.20
2018-08-31T12:43:38.384Z,1.60
2018-08-31T12:47:11.627Z,2.13
2018-08-31T12:49:46.411Z,2.80
2018-08-31T12:52:16.537Z,2.53
2018-08-31T12:54:50.430Z,1.90
2018-08-31T12:57:24.025Z,1.83
2018-08-31T13:00:12.161Z,2.40
2018-08-31T13:02:43.727Z,1.90
2018-08-31T13:05:18.851Z,2.00
2018-08-31T13:07:50.399Z,2.00
2018-08-31T13:10:23.472Z,1.90
2018-08-31T13:12:56.289Z,2.10
2018-08-31T13:15:26.535Z,3.10
2018-08-31T13:18:04.673Z,2.03
2018-08-31T13:20:36.294Z,2.33
2018-08-31T13:23:07.960Z,2.20
2018-08-31T13:25:41.645Z,2.30
2018-08-31T13:28:16.809Z,1.80
2018-08-31T13:30:48.977Z,2.03
2018-08-31T13:33:20.507Z,2.10
2018-08-31T13:35:52.043Z,2.43
2018-08-31T13:38:24.960Z,2.40
2018-08-31T13:40:57.217Z,2.80
2018-08-31T13:43:32.020Z,2.20
2018-08-31T13:46:04.273Z,2.43
2018-08-31T13:48:34.196Z,2.30
2018-08-31T13:51:07.817Z,2.73
2018-08-31T13:53:40.665Z,2.33
2018-08-31T13:56:13.078Z,2.10
2018-08-31T13:58:45.173Z,2.40
2018-08-31T14:01:16.828Z,2.27
2018-08-31T14:03:49.483Z,2.17
2018-08-31T14:06:22.125Z,2.67
2018-08-31T14:08:53.532Z,3.03
2018-08-31T14:11:24.526Z,2.90
2018-08-31T14:13:58.462Z,2.83
2018-08-31T14:16:33.592Z,2.70
2018-08-31T14:19:12.126Z,3.00
2018-08-31T14:21:48.814Z,2.33
2018-08-31T14:24:20.458Z,2.60
2018-08-31T14:26:51.583Z,2.57
2018-08-31T14:29:22.905Z,2.17
2018-08-31T14:31:58.018Z,2.47
2018-08-31T14:34:31.238Z,2.80
2018-08-31T14:37:03.924Z,2.47
2018-08-31T14:39:38.619Z,3.43
2018-08-31T14:42:24.667Z,2.80
2018-08-31T14:44:58.573Z,3.00
2018-08-31T14:47:31.569Z,2.90
2018-08-31T14:50:05.425Z,2.60
2018-08-31T14:52:35.638Z,2.60
2018-08-31T14:55:11.513Z,2.63
2018-08-31T14:57:42.357Z,2.93
2018-08-31T15:00:18.677Z,2.47
2018-08-31T15:02:54.446Z,2.43
2018-08-31T15:05:42.947Z,2.47
2018-08-31T15:08:17.886Z,2.67
2018-08-31T15:10:51.369Z,2.30
2018-08-31T15:13:24.857Z,2.50
2018-08-31T15:15:58.384Z,2.50
2018-08-31T15:18:32.030Z,2.50
2018-08-31T15:21:04.990Z,2.30
2018-08-31T15:23:37.066Z,2.50
2018-08-31T15:26:07.646Z,2.23
2018-08-31T15:28:38.094Z,2.97
2018-08-31T15:31:08.824Z,2.80
2018-08-31T15:33:39.606Z,2.20
2018-08-31T15:36:09.975Z,2.30
2018-08-31T15:38:40.593Z,2.23
2018-08-31T15:41:11.712Z,2.50
2018-08-31T15:43:41.957Z,2.57
2018-08-31T15:46:14.381Z,2.37
2018-08-31T15:48:44.208Z,2.93
2018-08-31T15:51:14.492Z,2.20
2018-08-31T15:53:44.833Z,5.60
2018-08-31T15:56:15.817Z,2.57
2018-08-31T15:58:46.394Z,2.27
2018-08-31T16:01:19.838Z,2.60
2018-08-31T16:03:51.713Z,2.10
2018-08-31T16:06:24.346Z,2.27
2018-08-31T16:08:56.227Z,2.73
2018-08-31T16:11:27.893Z,2.40
2018-08-31T16:13:58.962Z,2.60
2018-08-31T16:16:29.549Z,2.53
2018-08-31T16:18:59.954Z,3.73
2018-08-31T16:21:30.724Z,2.70
2018-08-31T16:24:04.754Z,2.80
2018-08-31T16:26:35.050Z,2.67
2018-08-31T16:29:05.609Z,2.10
2018-08-31T16:31:37.899Z,2.70
2018-08-31T16:34:08.599Z,2.53
2018-08-31T16:36:41.256Z,2.73
2018-08-31T16:39:12.237Z,2.67
2018-08-31T16:41:43.299Z,3.73
2018-08-31T16:44:15.182Z,2.23
2018-08-31T16:46:45.927Z,2.80
2018-08-31T16:49:17.203Z,2.73
2018-08-31T16:51:48.127Z,2.57
2018-08-31T16:54:18.406Z,2.57
2018-08-31T16:56:50.688Z,2.60
2018-08-31T16:59:23.083Z,2.77
2018-08-31T17:01:55.190Z,2.10
2018-08-31T17:04:27.624Z,2.77
2018-08-31T17:07:01.175Z,2.30
2018-08-31T17:09:38.488Z,2.60
2018-08-31T17:12:14.600Z,2.60
2018-08-31T17:14:47.002Z,2.97
2018-08-31T17:17:21.252Z,2.90
2018-08-31T17:19:54.749Z,2.47
2018-08-31T17:22:27.545Z,3.50
2018-08-31T17:25:01.676Z,2.20
2018-08-31T17:27:39.681Z,2.40
2018-08-31T17:30:21.808Z,2.70
2018-08-31T17:33:03.169Z,2.30
2018-08-31T17:35:40.228Z,2.17
2018-08-31T17:38:12.127Z,2.23
2018-08-31T17:40:44.319Z,2.30
2018-08-31T17:43:18.119Z,2.80
2018-08-31T17:45:53.528Z,2.57
2018-08-31T17:48:32.228Z,2.43
2018-08-31T17:51:11.880Z,2.37
2018-08-31T17:53:42.116Z,2.00
2018-08-31T17:56:16.911Z,2.27
2018-08-31T17:58:51.058Z,2.23
2018-08-31T18:01:25.210Z,1.80
2018-08-31T18:04:05.212Z,2.53
2018-08-31T18:06:44.301Z,2.30
2018-08-31T18:09:24.481Z,2.33
2018-08-31T18:14:51.028Z,2.60
2018-08-31T18:17:24.533Z,1.87
2018-08-31T18:19:56.485Z,2.67
2018-08-31T18:22:30.062Z,2.30
2018-08-31T18:25:12.689Z,2.33
2018-08-31T18:27:45.475Z,2.27
2018-08-31T18:30:22.812Z,2.50
2018-08-31T18:33:01.036Z,2.30
2018-08-31T18:35:33.354Z,2.67
2018-08-31T18:38:21.215Z,2.63
2018-08-31T18:40:53.073Z,2.37
2018-08-31T18:43:26.821Z,1.80
2018-08-31T18:46:00.713Z,2.87
2018-08-31T18:48:36.063Z,2.90
2018-08-31T18:51:21.485Z,2.13
2018-08-31T18:53:54.800Z,2.20
2018-08-31T18:56:30.992Z,2.30
2018-08-31T18:59:07.572Z,2.20
2018-08-31T19:01:39.586Z,2.33
2018-08-31T19:04:14.472Z,1.90
2018-08-31T19:06:49.690Z,2.30
2018-08-31T19:09:21.294Z,2.50
2018-08-31T19:11:53.264Z,2.17
2018-08-31T19:14:24.623Z,2.40
2018-08-31T19:17:03.431Z,2.00
2018-08-31T19:19:35.622Z,2.30
2018-08-31T19:22:13.234Z,2.30
2018-08-31T19:24:46.195Z,2.30
2018-08-31T19:27:18.029Z,2.20
2018-08-31T19:29:52.600Z,2.63
2018-08-31T19:32:27.709Z,2.13
2018-08-31T19:35:00.290Z,2.37
2018-08-31T19:37:32.344Z,2.23
2018-08-31T19:40:06.674Z,2.27
2018-08-31T19:42:39.637Z,2.40
2018-08-31T19:45:11.301Z,1.93
2018-08-31T19:47:43.545Z,2.27
2018-08-31T19:50:14.596Z,3.03
2018-08-31T19:52:52.686Z,2.03
2018-08-31T19:55:25.542Z,2.57
2018-08-31T19:58:01.279Z,2.00
2018-08-31T20:00:34.681Z,2.17
2018-08-31T20:03:08.635Z,2.43
2018-08-31T20:05:41.791Z,2.00
2018-08-31T20:08:16.426Z,2.60
2018-08-31T20:10:49.889Z,2.87
2018-08-31T20:13:26.410Z,2.90
2018-08-31T20:16:00.583Z,2.80
2018-08-31T20:18:34.247Z,2.13
2018-08-31T20:21:05.170Z,2.60
2018-08-31T20:23:38.789Z,2.87
2018-08-31T20:26:12.406Z,2.43
2018-08-31T20:28:47.531Z,2.37
2018-08-31T20:31:24.241Z,2.70
2018-08-31T20:33:57.925Z,2.70
2018-08-31T20:36:35.181Z,2.93
2018-08-31T20:39:12.151Z,2.47
2018-08-31T20:41:43.035Z,2.60
2018-08-31T20:44:19.329Z,2.40
2018-08-31T20:46:51.173Z,2.80
2018-08-31T20:49:23.085Z,2.13
2018-08-31T20:51:55.911Z,2.67
2018-08-31T20:54:28.057Z,2.47
2018-08-31T20:57:02.126Z,2.63
2018-08-31T20:59:35.557Z,2.07
2018-08-31T21:02:07.760Z,2.10
2018-08-31T21:04:37.639Z,2.10
2018-08-31T21:07:08.068Z,2.13
2018-08-31T21:09:39.131Z,2.60
2018-08-31T21:12:10.817Z,2.67
2018-08-31T21:14:41.838Z,2.37
2018-08-31T21:17:12.691Z,2.50
2018-08-31T21:19:43.356Z,2.73
2018-08-31T21:22:15.715Z,2.77
2018-08-31T21:24:47.289Z,2.37
2018-08-31T21:27:19.657Z,2.53
2018-08-31T21:29:49.734Z,2.60
2018-08-31T21:32:24.134Z,2.27
2018-08-31T21:34:56.721Z,2.93
2018-08-31T21:37:27.655Z,3.47
2018-08-31T21:39:59.468Z,2.93
2018-08-31T21:42:30.070Z,2.53
2018-08-31T21:45:02.611Z,3.03
2018-08-31T21:47:36.137Z,2.40
2018-08-31T21:50:12.411Z,2.40
2018-08-31T21:52:42.949Z,2.50
2018-08-31T21:55:15.237Z,2.23
2018-08-31T21:57:48.071Z,2.20
2018-08-31T22:00:22.249Z,2.90
2018-08-31T22:02:57.437Z,2.93
2018-08-31T22:05:29.734Z,2.40
2018-08-31T22:08:02.089Z,2.57
2018-08-31T22:10:35.306Z,2.47
2018-08-31T22:13:07.404Z,2.10
2018-08-31T22:15:38.594Z,2.63
2018-08-31T22:18:09.592Z,2.47
2018-08-31T22:20:41.193Z,2.13
2018-08-31T22:23:14.783Z,2.50
2018-08-31T22:25:45.460Z,2.70
2018-08-31T22:28:16.774Z,2.50
2018-08-31T22:30:47.527Z,2.27
2018-08-31T22:33:18.159Z,2.30
2018-08-31T22:35:48.049Z,2.13
2018-08-31T22:38:19.822Z,2.70
2018-08-31T22:40:51.423Z,2.23
2018-08-31T22:43:29.322Z,2.40
2018-08-31T22:46:01.248Z,2.37
2018-08-31T22:48:31.639Z,2.10
2018-08-31T22:51:02.452Z,2.00
2018-08-31T22:53:33.648Z,2.60
2018-08-31T22:56:05.827Z,2.20
2018-08-31T22:58:37.345Z,1.70
2018-08-31T23:01:07.512Z,3.30
2018-08-31T23:03:37.537Z,2.03
2018-08-31T23:06:08.237Z,2.53
2018-08-31T23:08:39.035Z,2.20
2018-08-31T23:11:12.459Z,2.80
2018-08-31T23:13:44.533Z,2.20
2018-08-31T23:16:15.220Z,2.33
2018-08-31T23:18:45.307Z,2.40
2018-08-31T23:21:18.720Z,2.40
2018-08-31T23:23:50.254Z,2.60
2018-08-31T23:26:20.417Z,2.23
2018-08-31T23:28:50.910Z,2.60
2018-08-31T23:31:20.783Z,3.00
2018-08-31T23:33:50.607Z,2.87
2018-08-31T23:36:20.453Z,2.63
2018-08-31T23:38:51.428Z,2.60
2018-08-31T23:41:22.701Z,2.77
2018-08-31T23:43:53.958Z,2.77
2018-08-31T23:46:24.249Z,2.30
2018-08-31T23:48:54.288Z,2.67
2018-08-31T23:51:24.948Z,2.13
2018-08-31T23:53:55.595Z,2.43
2018-08-31T23:56:26.029Z,3.33
2018-08-31T23:58:56.833Z,2.20
